sensor_id;sensor_type;location;lat;lon;timestamp;P1;durP1;ratioP1;P2;durP2;ratioP2
23596;SDS011;40226;50.874;4.394;2023-11-21T00:00:12;3.92;;;2.80;;
23596;SDS011;40226;50.874;4.394;2023-11-21T00:02:40;2.15;;;2.00;;
23596;SDS011;40226;50.874;4.394;2023-11-21T00:05:10;2.17;;;1.98;;
23596;SDS011;40226;50.874;4.394;2023-11-21T00:07:36;1.73;;;1.58;;
23596;SDS011;40226;50.874;4.394;2023-11-21T00:10:03;7.20;;;2.65;;
23596;SDS011;40226;50.874;4.394;2023-11-21T00:12:33;0.68;;;0.68;;
23596;SDS011;40226;50.874;4.394;2023-11-21T00:14:59;1.92;;;1.83;;
23596;SDS011;40226;50.874;4.394;2023-11-21T00:17:25;4.53;;;3.05;;
23596;SDS011;40226;50.874;4.394;2023-11-21T00:19:50;3.35;;;3.05;;
23596;SDS011;40226;50.874;4.394;2023-11-21T00:22:19;1.60;;;1.50;;
23596;SDS011;40226;50.874;4.394;2023-11-21T00:24:45;3.53;;;2.60;;
23596;SDS011;40226;50.874;4.394;2023-11-21T00:27:11;2.45;;;1.48;;
23596;SDS011;40226;50.874;4.394;2023-11-21T00:29:37;1.90;;;1.80;;
23596;SDS011;40226;50.874;4.394;2023-11-21T00:32:03;1.23;;;1.23;;
23596;SDS011;40226;50.874;4.394;2023-11-21T00:34:30;2.65;;;2.00;;
23596;SDS011;40226;50.874;4.394;2023-11-21T00:36:56;4.18;;;2.92;;
23596;SDS011;40226;50.874;4.394;2023-11-21T00:39:22;2.30;;;1.75;;
23596;SDS011;40226;50.874;4.394;2023-11-21T00:41:47;12.25;;;2.72;;
23596;SDS011;40226;50.874;4.394;2023-11-21T00:44:13;2.67;;;1.27;;
23596;SDS011;40226;50.874;4.394;2023-11-21T00:46:39;4.40;;;3.72;;
23596;SDS011;40226;50.874;4.394;2023-11-21T00:49:04;0.70;;;0.70;;
23596;SDS011;40226;50.874;4.394;2023-11-21T00:51:30;3.78;;;3.30;;
23596;SDS011;40226;50.874;4.394;2023-11-21T00:53:56;5.53;;;2.03;;
23596;SDS011;40226;50.874;4.394;2023-11-21T00:56:21;6.35;;;3.35;;
23596;SDS011;40226;50.874;4.394;2023-11-21T00:58:47;2.47;;;2.38;;
23596;SDS011;40226;50.874;4.394;2023-11-21T01:01:17;1.15;;;1.15;;
23596;SDS011;40226;50.874;4.394;2023-11-21T01:03:43;3.65;;;2.72;;
23596;SDS011;40226;50.874;4.394;2023-11-21T01:06:11;7.32;;;3.63;;
23596;SDS011;40226;50.874;4.394;2023-11-21T01:08:36;1.67;;;1.58;;
23596;SDS011;40226;50.874;4.394;2023-11-21T01:11:02;3.22;;;2.92;;
23596;SDS011;40226;50.874;4.394;2023-11-21T01:13:28;3.17;;;3.00;;
23596;SDS011;40226;50.874;4.394;2023-11-21T01:15:54;3.08;;;2.88;;
23596;SDS011;40226;50.874;4.394;2023-11-21T01:18:21;2.38;;;2.22;;
23596;SDS011;40226;50.874;4.394;2023-11-21T01:20:46;1.75;;;1.65;;
23596;SDS011;40226;50.874;4.394;2023-11-21T01:23:15;2.40;;;2.20;;
23596;SDS011;40226;50.874;4.394;2023-11-21T01:25:40;3.05;;;2.85;;
23596;SDS011;40226;50.874;4.394;2023-11-21T01:28:06;3.03;;;2.78;;
23596;SDS011;40226;50.874;4.394;2023-11-21T01:30:32;3.60;;;1.80;;
23596;SDS011;40226;50.874;4.394;2023-11-21T01:32:58;2.85;;;2.65;;
23596;SDS011;40226;50.874;4.394;2023-11-21T01:35:24;3.22;;;2.63;;
23596;SDS011;40226;50.874;4.394;2023-11-21T01:37:50;4.80;;;4.38;;
23596;SDS011;40226;50.874;4.394;2023-11-21T01:40:15;2.03;;;1.92;;
23596;SDS011;40226;50.874;4.394;2023-11-21T01:42:41;3.13;;;2.92;;
23596;SDS011;40226;50.874;4.394;2023-11-21T01:45:12;2.97;;;2.70;;
23596;SDS011;40226;50.874;4.394;2023-11-21T01:47:38;4.03;;;1.95;;
23596;SDS011;40226;50.874;4.394;2023-11-21T01:50:06;4.70;;;3.03;;
23596;SDS011;40226;50.874;4.394;2023-11-21T01:52:33;2.38;;;2.22;;
23596;SDS011;40226;50.874;4.394;2023-11-21T01:55:00;2.50;;;2.22;;
23596;SDS011;40226;50.874;4.394;2023-11-21T01:57:25;2.42;;;2.22;;
23596;SDS011;40226;50.874;4.394;2023-11-21T01:59:51;1.27;;;1.27;;
23596;SDS011;40226;50.874;4.394;2023-11-21T02:02:19;6.03;;;3.28;;
23596;SDS011;40226;50.874;4.394;2023-11-21T02:04:45;2.15;;;2.05;;
23596;SDS011;40226;50.874;4.394;2023-11-21T02:07:11;12.80;;;3.97;;
23596;SDS011;40226;50.874;4.394;2023-11-21T02:09:36;3.17;;;1.15;;
23596;SDS011;40226;50.874;4.394;2023-11-21T02:12:03;0.68;;;0.68;;
23596;SDS011;40226;50.874;4.394;2023-11-21T02:14:30;7.55;;;2.75;;
23596;SDS011;40226;50.874;4.394;2023-11-21T02:16:56;4.57;;;3.05;;
23596;SDS011;40226;50.874;4.394;2023-11-21T02:19:22;0.77;;;0.77;;
23596;SDS011;40226;50.874;4.394;2023-11-21T02:21:50;15.73;;;1.63;;
23596;SDS011;40226;50.874;4.394;2023-11-21T02:24:20;3.25;;;2.25;;
23596;SDS011;40226;50.874;4.394;2023-11-21T02:26:46;1.42;;;1.38;;
23596;SDS011;40226;50.874;4.394;2023-11-21T02:29:12;3.22;;;1.50;;
23596;SDS011;40226;50.874;4.394;2023-11-21T02:31:39;1.75;;;1.65;;
23596;SDS011;40226;50.874;4.394;2023-11-21T02:34:13;2.53;;;1.38;;
23596;SDS011;40226;50.874;4.394;2023-11-21T02:36:43;2.30;;;2.13;;
23596;SDS011;40226;50.874;4.394;2023-11-21T02:39:09;2.03;;;1.90;;
23596;SDS011;40226;50.874;4.394;2023-11-21T02:41:37;2.60;;;2.40;;
23596;SDS011;40226;50.874;4.394;2023-11-21T02:44:03;2.03;;;1.27;;
23596;SDS011;40226;50.874;4.394;2023-11-21T02:46:31;5.78;;;2.25;;
23596;SDS011;40226;50.874;4.394;2023-11-21T02:48:58;2.47;;;2.35;;
23596;SDS011;40226;50.874;4.394;2023-11-21T02:51:28;4.03;;;2.70;;
23596;SDS011;40226;50.874;4.394;2023-11-21T02:53:54;2.15;;;1.88;;
23596;SDS011;40226;50.874;4.394;2023-11-21T02:56:23;3.50;;;2.72;;
23596;SDS011;40226;50.874;4.394;2023-11-21T02:58:49;2.38;;;1.35;;
23596;SDS011;40226;50.874;4.394;2023-11-21T03:01:15;3.03;;;2.45;;
23596;SDS011;40226;50.874;4.394;2023-11-21T03:03:40;1.45;;;1.38;;
23596;SDS011;40226;50.874;4.394;2023-11-21T03:06:06;1.88;;;1.73;;
23596;SDS011;40226;50.874;4.394;2023-11-21T03:08:32;3.03;;;2.78;;
23596;SDS011;40226;50.874;4.394;2023-11-21T03:10:58;3.13;;;2.00;;
23596;SDS011;40226;50.874;4.394;2023-11-21T03:13:23;2.45;;;1.75;;
23596;SDS011;40226;50.874;4.394;2023-11-21T03:15:49;1.45;;;1.42;;
23596;SDS011;40226;50.874;4.394;2023-11-21T03:18:15;1.33;;;1.27;;
23596;SDS011;40226;50.874;4.394;2023-11-21T03:20:40;5.57;;;3.13;;
23596;SDS011;40226;50.874;4.394;2023-11-21T03:23:06;1.63;;;1.50;;
23596;SDS011;40226;50.874;4.394;2023-11-21T03:25:32;3.78;;;3.45;;
23596;SDS011;40226;50.874;4.394;2023-11-21T03:27:57;4.82;;;1.88;;
23596;SDS011;40226;50.874;4.394;2023-11-21T03:30:23;3.03;;;2.80;;
23596;SDS011;40226;50.874;4.394;2023-11-21T03:32:49;4.50;;;1.80;;
23596;SDS011;40226;50.874;4.394;2023-11-21T03:35:14;2.70;;;2.50;;
23596;SDS011;40226;50.874;4.394;2023-11-21T03:37:40;3.47;;;2.50;;
23596;SDS011;40226;50.874;4.394;2023-11-21T03:40:07;4.25;;;2.83;;
23596;SDS011;40226;50.874;4.394;2023-11-21T03:42:37;2.17;;;2.00;;
23596;SDS011;40226;50.874;4.394;2023-11-21T03:45:03;1.38;;;1.27;;
23596;SDS011;40226;50.874;4.394;2023-11-21T03:47:30;0.80;;;0.80;;
23596;SDS011;40226;50.874;4.394;2023-11-21T03:49:55;1.85;;;1.75;;
23596;SDS011;40226;50.874;4.394;2023-11-21T03:52:21;2.67;;;2.45;;
23596;SDS011;40226;50.874;4.394;2023-11-21T03:54:46;2.47;;;2.28;;
23596;SDS011;40226;50.874;4.394;2023-11-21T03:57:12;5.72;;;3.53;;
23596;SDS011;40226;50.874;4.394;2023-11-21T03:59:41;0.65;;;0.65;;
23596;SDS011;40226;50.874;4.394;2023-11-21T04:02:07;6.38;;;2.53;;
23596;SDS011;40226;50.874;4.394;2023-11-21T04:04:34;2.20;;;2.08;;
23596;SDS011;40226;50.874;4.394;2023-11-21T04:07:00;3.83;;;2.47;;
23596;SDS011;40226;50.874;4.394;2023-11-21T04:09:25;3.22;;;1.85;;
23596;SDS011;40226;50.874;4.394;2023-11-21T04:11:51;3.03;;;2.38;;
23596;SDS011;40226;50.874;4.394;2023-11-21T04:14:17;1.50;;;1.08;;
23596;SDS011;40226;50.874;4.394;2023-11-21T04:16:43;1.25;;;1.15;;
23596;SDS011;40226;50.874;4.394;2023-11-21T04:19:09;2.33;;;1.80;;
23596;SDS011;40226;50.874;4.394;2023-11-21T04:21:36;3.35;;;2.75;;
23596;SDS011;40226;50.874;4.394;2023-11-21T04:24:02;1.17;;;1.15;;
23596;SDS011;40226;50.874;4.394;2023-11-21T04:26:28;2.45;;;2.13;;
23596;SDS011;40226;50.874;4.394;2023-11-21T04:28:53;1.38;;;1.27;;
23596;SDS011;40226;50.874;4.394;2023-11-21T04:31:19;4.38;;;1.73;;
23596;SDS011;40226;50.874;4.394;2023-11-21T04:33:44;9.90;;;2.95;;
23596;SDS011;40226;50.874;4.394;2023-11-21T04:36:10;1.48;;;1.38;;
23596;SDS011;40226;50.874;4.394;2023-11-21T04:38:36;3.40;;;2.17;;
23596;SDS011;40226;50.874;4.394;2023-11-21T04:41:01;6.32;;;1.85;;
23596;SDS011;40226;50.874;4.394;2023-11-21T04:43:27;1.45;;;1.35;;
23596;SDS011;40226;50.874;4.394;2023-11-21T04:45:53;3.53;;;2.47;;
23596;SDS011;40226;50.874;4.394;2023-11-21T04:48:19;2.22;;;2.03;;
23596;SDS011;40226;50.874;4.394;2023-11-21T04:50:45;2.45;;;2.35;;
23596;SDS011;40226;50.874;4.394;2023-11-21T04:53:11;1.85;;;1.75;;
23596;SDS011;40226;50.874;4.394;2023-11-21T04:55:39;1.45;;;1.27;;
23596;SDS011;40226;50.874;4.394;2023-11-21T04:58:08;1.92;;;1.80;;
23596;SDS011;40226;50.874;4.394;2023-11-21T05:00:33;5.50;;;1.98;;
23596;SDS011;40226;50.874;4.394;2023-11-21T05:02:59;3.20;;;2.33;;
23596;SDS011;40226;50.874;4.394;2023-11-21T05:05:26;1.88;;;1.77;;
23596;SDS011;40226;50.874;4.394;2023-11-21T05:07:52;1.50;;;1.45;;
23596;SDS011;40226;50.874;4.394;2023-11-21T05:10:18;3.63;;;1.33;;
23596;SDS011;40226;50.874;4.394;2023-11-21T05:12:44;3.13;;;2.88;;
23596;SDS011;40226;50.874;4.394;2023-11-21T05:15:11;10.70;;;2.20;;
23596;SDS011;40226;50.874;4.394;2023-11-21T05:17:40;2.50;;;2.17;;
23596;SDS011;40226;50.874;4.394;2023-11-21T05:20:14;2.92;;;2.65;;
23596;SDS011;40226;50.874;4.394;2023-11-21T05:22:46;2.53;;;1.75;;
23596;SDS011;40226;50.874;4.394;2023-11-21T05:25:13;2.15;;;1.83;;
23596;SDS011;40226;50.874;4.394;2023-11-21T05:27:39;3.20;;;1.98;;
23596;SDS011;40226;50.874;4.394;2023-11-21T05:30:05;5.15;;;3.85;;
23596;SDS011;40226;50.874;4.394;2023-11-21T05:32:31;3.88;;;2.28;;
23596;SDS011;40226;50.874;4.394;2023-11-21T05:35:00;3.45;;;2.95;;
23596;SDS011;40226;50.874;4.394;2023-11-21T05:37:26;2.45;;;2.22;;
23596;SDS011;40226;50.874;4.394;2023-11-21T05:39:52;1.45;;;1.33;;
23596;SDS011;40226;50.874;4.394;2023-11-21T05:42:19;2.47;;;2.28;;
23596;SDS011;40226;50.874;4.394;2023-11-21T05:44:45;1.92;;;1.73;;
23596;SDS011;40226;50.874;4.394;2023-11-21T05:47:11;2.15;;;2.03;;
23596;SDS011;40226;50.874;4.394;2023-11-21T05:49:38;3.60;;;2.58;;
23596;SDS011;40226;50.874;4.394;2023-11-21T05:52:04;1.55;;;1.48;;
23596;SDS011;40226;50.874;4.394;2023-11-21T05:54:30;5.05;;;2.08;;
23596;SDS011;40226;50.874;4.394;2023-11-21T05:56:56;1.58;;;1.45;;
23596;SDS011;40226;50.874;4.394;2023-11-21T05:59:22;5.32;;;2.58;;
23596;SDS011;40226;50.874;4.394;2023-11-21T06:01:48;1.05;;;1.05;;
23596;SDS011;40226;50.874;4.394;2023-11-21T06:04:14;0.63;;;0.63;;
23596;SDS011;40226;50.874;4.394;2023-11-21T06:06:39;2.05;;;1.20;;
23596;SDS011;40226;50.874;4.394;2023-11-21T06:09:05;1.88;;;1.77;;
23596;SDS011;40226;50.874;4.394;2023-11-21T06:11:33;6.60;;;3.30;;
23596;SDS011;40226;50.874;4.394;2023-11-21T06:13:59;0.95;;;0.93;;
23596;SDS011;40226;50.874;4.394;2023-11-21T06:16:25;1.48;;;1.27;;
23596;SDS011;40226;50.874;4.394;2023-11-21T06:18:50;3.78;;;3.30;;
23596;SDS011;40226;50.874;4.394;2023-11-21T06:21:16;3.17;;;2.03;;
23596;SDS011;40226;50.874;4.394;2023-11-21T06:23:43;1.42;;;1.23;;
23596;SDS011;40226;50.874;4.394;2023-11-21T06:26:08;1.48;;;1.38;;
23596;SDS011;40226;50.874;4.394;2023-11-21T06:28:34;1.35;;;1.23;;
23596;SDS011;40226;50.874;4.394;2023-11-21T06:31:01;1.73;;;1.63;;
23596;SDS011;40226;50.874;4.394;2023-11-21T06:33:33;2.15;;;2.05;;
23596;SDS011;40226;50.874;4.394;2023-11-21T06:35:59;2.33;;;2.13;;
23596;SDS011;40226;50.874;4.394;2023-11-21T06:38:28;18.23;;;1.77;;
23596;SDS011;40226;50.874;4.394;2023-11-21T06:40:55;2.67;;;2.47;;
23596;SDS011;40226;50.874;4.394;2023-11-21T06:43:21;4.00;;;2.80;;
23596;SDS011;40226;50.874;4.394;2023-11-21T06:45:47;1.65;;;1.38;;
23596;SDS011;40226;50.874;4.394;2023-11-21T06:48:13;2.83;;;2.63;;
23596;SDS011;40226;50.874;4.394;2023-11-21T06:50:38;6.75;;;3.53;;
23596;SDS011;40226;50.874;4.394;2023-11-21T06:53:04;2.33;;;1.65;;
23596;SDS011;40226;50.874;4.394;2023-11-21T06:55:32;2.67;;;2.47;;
23596;SDS011;40226;50.874;4.394;2023-11-21T06:57:57;1.67;;;1.58;;
23596;SDS011;40226;50.874;4.394;2023-11-21T07:00:25;1.15;;;1.10;;
23596;SDS011;40226;50.874;4.394;2023-11-21T07:02:52;2.30;;;1.25;;
23596;SDS011;40226;50.874;4.394;2023-11-21T07:05:19;1.40;;;1.33;;
23596;SDS011;40226;50.874;4.394;2023-11-21T07:07:46;3.47;;;3.03;;
23596;SDS011;40226;50.874;4.394;2023-11-21T07:10:13;5.18;;;2.55;;
23596;SDS011;40226;50.874;4.394;2023-11-21T07:12:39;1.73;;;1.55;;
23596;SDS011;40226;50.874;4.394;2023-11-21T07:15:05;3.35;;;2.67;;
23596;SDS011;40226;50.874;4.394;2023-11-21T07:17:34;1.70;;;1.63;;
23596;SDS011;40226;50.874;4.394;2023-11-21T07:20:00;2.45;;;2.20;;
23596;SDS011;40226;50.874;4.394;2023-11-21T07:22:26;2.28;;;2.08;;
23596;SDS011;40226;50.874;4.394;2023-11-21T07:24:52;3.63;;;2.55;;
23596;SDS011;40226;50.874;4.394;2023-11-21T07:27:18;1.92;;;1.83;;
23596;SDS011;40226;50.874;4.394;2023-11-21T07:29:43;0.70;;;0.70;;
23596;SDS011;40226;50.874;4.394;2023-11-21T07:32:09;2.72;;;2.47;;
23596;SDS011;40226;50.874;4.394;2023-11-21T07:34:35;2.13;;;1.95;;
23596;SDS011;40226;50.874;4.394;2023-11-21T07:37:01;3.70;;;3.40;;
23596;SDS011;40226;50.874;4.394;2023-11-21T07:39:27;3.50;;;3.20;;
23596;SDS011;40226;50.874;4.394;2023-11-21T07:41:53;3.25;;;1.90;;
23596;SDS011;40226;50.874;4.394;2023-11-21T07:44:19;1.80;;;1.67;;
23596;SDS011;40226;50.874;4.394;2023-11-21T07:46:45;4.47;;;1.92;;
23596;SDS011;40226;50.874;4.394;2023-11-21T07:49:11;2.10;;;1.95;;
23596;SDS011;40226;50.874;4.394;2023-11-21T07:51:39;2.30;;;2.03;;
23596;SDS011;40226;50.874;4.394;2023-11-21T07:54:05;10.40;;;3.70;;
23596;SDS011;40226;50.874;4.394;2023-11-21T07:56:31;3.63;;;2.88;;
23596;SDS011;40226;50.874;4.394;2023-11-21T07:58:57;6.22;;;2.15;;
23596;SDS011;40226;50.874;4.394;2023-11-21T08:01:22;2.55;;;1.35;;
23596;SDS011;40226;50.874;4.394;2023-11-21T08:03:48;1.50;;;1.40;;
23596;SDS011;40226;50.874;4.394;2023-11-21T08:06:16;5.72;;;3.42;;
23596;SDS011;40226;50.874;4.394;2023-11-21T08:08:42;1.27;;;1.27;;
23596;SDS011;40226;50.874;4.394;2023-11-21T08:11:07;2.22;;;1.60;;
23596;SDS011;40226;50.874;4.394;2023-11-21T08:13:35;2.45;;;2.03;;
23596;SDS011;40226;50.874;4.394;2023-11-21T08:16:01;2.95;;;2.67;;
23596;SDS011;40226;50.874;4.394;2023-11-21T08:18:28;12.20;;;3.95;;
23596;SDS011;40226;50.874;4.394;2023-11-21T08:20:55;0.73;;;0.73;;
23596;SDS011;40226;50.874;4.394;2023-11-21T08:23:21;2.55;;;2.05;;
23596;SDS011;40226;50.874;4.394;2023-11-21T08:25:53;1.77;;;1.67;;
23596;SDS011;40226;50.874;4.394;2023-11-21T08:28:19;2.28;;;2.17;;
23596;SDS011;40226;50.874;4.394;2023-11-21T08:30:47;4.18;;;3.08;;
23596;SDS011;40226;50.874;4.394;2023-11-21T08:33:12;3.33;;;2.60;;
23596;SDS011;40226;50.874;4.394;2023-11-21T08:35:38;3.65;;;3.35;;
23596;SDS011;40226;50.874;4.394;2023-11-21T08:38:03;2.85;;;2.15;;
23596;SDS011;40226;50.874;4.394;2023-11-21T08:40:29;3.42;;;2.75;;
23596;SDS011;40226;50.874;4.394;2023-11-21T08:42:55;6.10;;;4.30;;
23596;SDS011;40226;50.874;4.394;2023-11-21T08:45:23;2.67;;;2.28;;
23596;SDS011;40226;50.874;4.394;2023-11-21T08:47:50;3.03;;;1.50;;
23596;SDS011;40226;50.874;4.394;2023-11-21T08:50:15;2.28;;;1.42;;
23596;SDS011;40226;50.874;4.394;2023-11-21T08:52:41;2.65;;;2.45;;
23596;SDS011;40226;50.874;4.394;2023-11-21T08:55:08;5.03;;;2.70;;
23596;SDS011;40226;50.874;4.394;2023-11-21T08:57:37;5.22;;;2.67;;
23596;SDS011;40226;50.874;4.394;2023-11-21T09:00:04;3.00;;;2.55;;
23596;SDS011;40226;50.874;4.394;2023-11-21T09:02:37;1.77;;;1.67;;
23596;SDS011;40226;50.874;4.394;2023-11-21T09:05:04;8.50;;;4.88;;
23596;SDS011;40226;50.874;4.394;2023-11-21T09:07:30;3.53;;;3.00;;
23596;SDS011;40226;50.874;4.394;2023-11-21T09:09:56;17.13;;;3.90;;
23596;SDS011;40226;50.874;4.394;2023-11-21T09:12:22;2.15;;;1.92;;
23596;SDS011;40226;50.874;4.394;2023-11-21T09:14:49;3.38;;;2.78;;
23596;SDS011;40226;50.874;4.394;2023-11-21T09:17:15;1.42;;;1.35;;
23596;SDS011;40226;50.874;4.394;2023-11-21T09:19:41;9.73;;;2.22;;
23596;SDS011;40226;50.874;4.394;2023-11-21T09:22:10;7.47;;;2.97;;
23596;SDS011;40226;50.874;4.394;2023-11-21T09:24:36;3.05;;;2.13;;
23596;SDS011;40226;50.874;4.394;2023-11-21T09:27:02;2.38;;;2.20;;
23596;SDS011;40226;50.874;4.394;2023-11-21T09:29:30;6.03;;;3.35;;
23596;SDS011;40226;50.874;4.394;2023-11-21T09:31:56;2.95;;;2.20;;
23596;SDS011;40226;50.874;4.394;2023-11-21T09:34:24;2.67;;;2.47;;
23596;SDS011;40226;50.874;4.394;2023-11-21T09:36:50;3.20;;;2.95;;
23596;SDS011;40226;50.874;4.394;2023-11-21T09:39:16;1.25;;;1.10;;
23596;SDS011;40226;50.874;4.394;2023-11-21T09:41:44;2.72;;;2.47;;
23596;SDS011;40226;50.874;4.394;2023-11-21T09:44:17;1.48;;;1.40;;
23596;SDS011;40226;50.874;4.394;2023-11-21T09:46:44;1.90;;;1.77;;
23596;SDS011;40226;50.874;4.394;2023-11-21T09:49:14;2.60;;;1.83;;
23596;SDS011;40226;50.874;4.394;2023-11-21T09:51:44;3.08;;;2.45;;
23596;SDS011;40226;50.874;4.394;2023-11-21T09:54:11;7.30;;;4.38;;
23596;SDS011;40226;50.874;4.394;2023-11-21T09:56:40;4.00;;;3.60;;
23596;SDS011;40226;50.874;4.394;2023-11-21T09:59:07;2.00;;;1.88;;
23596;SDS011;40226;50.874;4.394;2023-11-21T10:01:38;1.70;;;1.58;;
23596;SDS011;40226;50.874;4.394;2023-11-21T10:04:05;0.88;;;0.88;;
23596;SDS011;40226;50.874;4.394;2023-11-21T10:06:36;1.75;;;1.33;;
23596;SDS011;40226;50.874;4.394;2023-11-21T10:09:11;5.43;;;1.40;;
23596;SDS011;40226;50.874;4.394;2023-11-21T10:11:39;7.68;;;3.30;;
23596;SDS011;40226;50.874;4.394;2023-11-21T10:14:07;0.88;;;0.88;;
23596;SDS011;40226;50.874;4.394;2023-11-21T10:16:35;2.33;;;2.13;;
23596;SDS011;40226;50.874;4.394;2023-11-21T10:19:03;2.00;;;1.80;;
23596;SDS011;40226;50.874;4.394;2023-11-21T10:21:32;3.17;;;1.80;;
23596;SDS011;40226;50.874;4.394;2023-11-21T10:23:58;1.75;;;1.65;;
23596;SDS011;40226;50.874;4.394;2023-11-21T10:26:24;3.92;;;2.05;;
23596;SDS011;40226;50.874;4.394;2023-11-21T10:29:01;0.73;;;0.73;;
23596;SDS011;40226;50.874;4.394;2023-11-21T10:31:30;0.57;;;0.57;;
23596;SDS011;40226;50.874;4.394;2023-11-21T10:34:17;2.47;;;2.13;;
23596;SDS011;40226;50.874;4.394;2023-11-21T10:36:43;6.10;;;1.75;;
23596;SDS011;40226;50.874;4.394;2023-11-21T10:39:09;7.00;;;1.90;;
23596;SDS011;40226;50.874;4.394;2023-11-21T10:41:43;1.13;;;1.13;;
23596;SDS011;40226;50.874;4.394;2023-11-21T10:44:11;3.35;;;2.78;;
23596;SDS011;40226;50.874;4.394;2023-11-21T10:46:39;2.35;;;2.15;;
23596;SDS011;40226;50.874;4.394;2023-11-21T10:49:05;2.40;;;2.00;;
23596;SDS011;40226;50.874;4.394;2023-11-21T10:51:31;2.03;;;1.77;;
23596;SDS011;40226;50.874;4.394;2023-11-21T10:53:57;2.35;;;2.03;;
23596;SDS011;40226;50.874;4.394;2023-11-21T10:56:25;2.15;;;2.05;;
23596;SDS011;40226;50.874;4.394;2023-11-21T10:58:52;2.63;;;2.42;;
23596;SDS011;40226;50.874;4.394;2023-11-21T11:01:18;3.67;;;2.78;;
23596;SDS011;40226;50.874;4.394;2023-11-21T11:03:46;2.42;;;1.52;;
23596;SDS011;40226;50.874;4.394;2023-11-21T11:06:13;4.03;;;2.72;;
23596;SDS011;40226;50.874;4.394;2023-11-21T11:08:40;1.63;;;1.45;;
23596;SDS011;40226;50.874;4.394;2023-11-21T11:11:06;6.05;;;1.88;;
23596;SDS011;40226;50.874;4.394;2023-11-21T11:13:32;1.75;;;1.60;;
23596;SDS011;40226;50.874;4.394;2023-11-21T11:15:58;66.38;;;32.45;;
23596;SDS011;40226;50.874;4.394;2023-11-21T11:18:29;67.05;;;33.03;;
23596;SDS011;40226;50.874;4.394;2023-11-21T11:20:56;66.13;;;31.90;;
23596;SDS011;40226;50.874;4.394;2023-11-21T11:23:44;62.13;;;30.42;;
23596;SDS011;40226;50.874;4.394;2023-11-21T11:26:24;61.38;;;29.60;;
23596;SDS011;40226;50.874;4.394;2023-11-21T11:29:23;61.03;;;30.85;;
23596;SDS011;40226;50.874;4.394;2023-11-21T11:32:00;56.63;;;29.67;;
23596;SDS011;40226;50.874;4.394;2023-11-21T11:34:30;61.33;;;31.30;;
23596;SDS011;40226;50.874;4.394;2023-11-21T11:39:29;65.10;;;32.38;;
23596;SDS011;40226;50.874;4.394;2023-11-21T11:42:04;64.70;;;33.20;;
23596;SDS011;40226;50.874;4.394;2023-11-21T11:47:24;64.32;;;33.42;;
23596;SDS011;40226;50.874;4.394;2023-11-21T11:50:15;60.40;;;33.10;;
23596;SDS011;40226;50.874;4.394;2023-11-21T11:52:43;57.22;;;30.63;;
23596;SDS011;40226;50.874;4.394;2023-11-21T11:55:13;54.50;;;30.35;;
23596;SDS011;40226;50.874;4.394;2023-11-21T11:57:41;54.90;;;29.45;;
23596;SDS011;40226;50.874;4.394;2023-11-21T12:00:20;49.28;;;28.77;;
23596;SDS011;40226;50.874;4.394;2023-11-21T12:02:55;48.63;;;28.20;;
23596;SDS011;40226;50.874;4.394;2023-11-21T12:05:27;44.10;;;26.48;;
23596;SDS011;40226;50.874;4.394;2023-11-21T12:07:54;42.17;;;25.63;;
23596;SDS011;40226;50.874;4.394;2023-11-21T12:10:25;40.05;;;23.90;;
23596;SDS011;40226;50.874;4.394;2023-11-21T12:12:56;42.00;;;24.77;;
23596;SDS011;40226;50.874;4.394;2023-11-21T12:15:24;37.22;;;22.50;;
23596;SDS011;40226;50.874;4.394;2023-11-21T12:17:50;40.92;;;22.65;;
23596;SDS011;40226;50.874;4.394;2023-11-21T12:20:20;33.33;;;21.33;;
23596;SDS011;40226;50.874;4.394;2023-11-21T12:22:52;39.05;;;22.02;;
23596;SDS011;40226;50.874;4.394;2023-11-21T12:25:27;30.23;;;20.00;;
23596;SDS011;40226;50.874;4.394;2023-11-21T12:28:01;33.10;;;20.80;;
23596;SDS011;40226;50.874;4.394;2023-11-21T12:30:33;36.17;;;22.52;;
23596;SDS011;40226;50.874;4.394;2023-11-21T12:33:03;33.97;;;20.00;;
23596;SDS011;40226;50.874;4.394;2023-11-21T12:35:30;30.27;;;18.90;;
23596;SDS011;40226;50.874;4.394;2023-11-21T12:37:59;28.30;;;18.45;;
23596;SDS011;40226;50.874;4.394;2023-11-21T12:40:27;30.70;;;19.25;;
23596;SDS011;40226;50.874;4.394;2023-11-21T12:42:55;32.67;;;20.95;;
23596;SDS011;40226;50.874;4.394;2023-11-21T12:45:25;31.50;;;19.23;;
23596;SDS011;40226;50.874;4.394;2023-11-21T12:50:26;31.52;;;19.50;;
23596;SDS011;40226;50.874;4.394;2023-11-21T12:53:01;28.05;;;18.30;;
23596;SDS011;40226;50.874;4.394;2023-11-21T12:55:33;32.73;;;18.50;;
23596;SDS011;40226;50.874;4.394;2023-11-21T12:58:02;28.98;;;17.80;;
23596;SDS011;40226;50.874;4.394;2023-11-21T13:00:37;27.45;;;16.80;;
23596;SDS011;40226;50.874;4.394;2023-11-21T13:03:08;29.52;;;19.33;;
23596;SDS011;40226;50.874;4.394;2023-11-21T13:05:37;31.35;;;19.15;;
23596;SDS011;40226;50.874;4.394;2023-11-21T13:08:05;32.58;;;19.88;;
23596;SDS011;40226;50.874;4.394;2023-11-21T13:10:38;38.30;;;21.40;;
23596;SDS011;40226;50.874;4.394;2023-11-21T13:13:06;34.65;;;20.40;;
23596;SDS011;40226;50.874;4.394;2023-11-21T13:15:34;34.72;;;20.20;;
23596;SDS011;40226;50.874;4.394;2023-11-21T13:18:01;38.90;;;22.33;;
23596;SDS011;40226;50.874;4.394;2023-11-21T13:20:28;199.05;;;177.20;;
23596;SDS011;40226;50.874;4.394;2023-11-21T13:22:58;44.00;;;27.55;;
23596;SDS011;40226;50.874;4.394;2023-11-21T13:25:27;37.17;;;20.58;;
23596;SDS011;40226;50.874;4.394;2023-11-21T13:27:53;35.13;;;20.67;;
23596;SDS011;40226;50.874;4.394;2023-11-21T13:30:20;34.22;;;20.23;;
23596;SDS011;40226;50.874;4.394;2023-11-21T13:32:53;37.97;;;20.77;;
23596;SDS011;40226;50.874;4.394;2023-11-21T13:35:22;32.47;;;19.60;;
23596;SDS011;40226;50.874;4.394;2023-11-21T13:38:11;37.55;;;19.80;;
23596;SDS011;40226;50.874;4.394;2023-11-21T13:40:38;33.72;;;18.90;;
23596;SDS011;40226;50.874;4.394;2023-11-21T13:43:10;28.50;;;17.80;;
23596;SDS011;40226;50.874;4.394;2023-11-21T13:45:36;29.02;;;18.65;;
23596;SDS011;40226;50.874;4.394;2023-11-21T13:48:04;30.60;;;17.42;;
23596;SDS011;40226;50.874;4.394;2023-11-21T13:50:34;29.88;;;16.88;;
23596;SDS011;40226;50.874;4.394;2023-11-21T13:53:00;27.63;;;14.88;;
23596;SDS011;40226;50.874;4.394;2023-11-21T13:55:44;22.35;;;15.75;;
23596;SDS011;40226;50.874;4.394;2023-11-21T13:58:10;22.65;;;13.25;;
23596;SDS011;40226;50.874;4.394;2023-11-21T14:00:42;18.30;;;11.50;;
23596;SDS011;40226;50.874;4.394;2023-11-21T14:03:14;21.08;;;12.05;;
23596;SDS011;40226;50.874;4.394;2023-11-21T14:05:45;15.43;;;9.73;;
23596;SDS011;40226;50.874;4.394;2023-11-21T14:08:13;17.83;;;10.23;;
23596;SDS011;40226;50.874;4.394;2023-11-21T14:10:41;16.30;;;10.82;;
23596;SDS011;40226;50.874;4.394;2023-11-21T14:13:11;16.90;;;9.70;;
23596;SDS011;40226;50.874;4.394;2023-11-21T14:15:38;17.92;;;10.27;;
23596;SDS011;40226;50.874;4.394;2023-11-21T14:18:08;16.40;;;10.25;;
23596;SDS011;40226;50.874;4.394;2023-11-21T14:20:35;15.10;;;9.68;;
23596;SDS011;40226;50.874;4.394;2023-11-21T14:23:05;16.65;;;10.52;;
23596;SDS011;40226;50.874;4.394;2023-11-21T14:25:32;15.32;;;8.90;;
23596;SDS011;40226;50.874;4.394;2023-11-21T14:27:58;16.58;;;10.30;;
23596;SDS011;40226;50.874;4.394;2023-11-21T14:30:24;17.02;;;9.80;;
23596;SDS011;40226;50.874;4.394;2023-11-21T14:32:51;16.40;;;9.88;;
23596;SDS011;40226;50.874;4.394;2023-11-21T14:35:17;15.55;;;9.63;;
23596;SDS011;40226;50.874;4.394;2023-11-21T14:37:43;15.13;;;9.20;;
23596;SDS011;40226;50.874;4.394;2023-11-21T14:40:09;14.25;;;9.15;;
23596;SDS011;40226;50.874;4.394;2023-11-21T14:42:35;17.85;;;9.32;;
23596;SDS011;40226;50.874;4.394;2023-11-21T14:45:04;16.90;;;9.65;;
23596;SDS011;40226;50.874;4.394;2023-11-21T14:47:32;14.75;;;9.75;;
23596;SDS011;40226;50.874;4.394;2023-11-21T14:49:59;17.45;;;10.52;;